Nearby METAR Reports

 

EGKB - Biggin Hill, United Kingdom
Distance from station: S 5mi, 8km
Updated: 28/04/2015 18:50
Partly cloudy
Partly cloudy
 Wind from SW
Wind: SW 12 mph , 19 km/h
Temperature: 9°C
Wind Chill: 6°C
Dew Point: 0°C
Humidity: 54%
Barometer: 1018 hPa
Clouds: Partly cloudy
Visibility: 6 miles , 10 km
Cloud details: Partly cloudy 1372 m
2015/04/28 17:50 EGKB 281750Z 23010KT 9999 SCT045 09/00 Q1018
EGLC - London City Airp, United Kingdom
Distance from station: NNE 8mi, 13km
Updated: 28/04/2015 18:50
Clear
Clear
 Wind from WSW
Wind: WSW 15 mph , 24 km/h
Temperature: 12°C
Dew Point: 0°C
Humidity: 44%
Barometer: 1018 hPa
Summary: Clear
Visibility: greater than 7 miles , 10 km
2015/04/28 17:50 EGLC 281750Z 24013KT CAVOK 12/M00 Q1018
 
EGKK - London/Gatwick A, United Kingdom
Distance from station: SSW 19mi, 31km
Updated: 28/04/2015 18:50
Clear
Clear
 Wind from SW
Wind: SW 13 mph , 20 km/h
Temperature: 10°C
Wind Chill: 7°C
Dew Point: 2°C
Humidity: 58%
Barometer: 1018 hPa
Summary: Clear
Visibility: greater than 7 miles , 10 km
2015/04/28 17:50 EGKK 281750Z 23011KT CAVOK 10/02 Q1018
EGLL - London/Heathrow, United Kingdom
Distance from station: WNW 21mi, 33km
Updated: 28/04/2015 18:50
Clear
Clear
 Wind from SW
Wind: SW 15 mph , 24 km/h
Temperature: 11°C
Dew Point: 2°C
Humidity: 54%
Barometer: 1018 hPa
Summary: Clear
Visibility: greater than 7 miles , 10 km
2015/04/28 17:50 EGLL 281750Z 22013KT CAVOK 11/02 Q1018